MAPA DE AEROPUERTO

INFORMACIÓN METAR y TAF


Deprecated: The each() function is deprecated. This message will be suppressed on further calls in /home/customer/www/clickair-va.com/public_html/VAM/vam/helpers/get_metar.php on line 20
METAR FOR UUEE
ADDS - METARS form results

(1351 UTC 13 January 2023)
Data provider http://aviationweather.gov/metar/data/
 
METAR text: UUEE 131330Z 19005MPS 160V220 9999 OVC009 M06/M08 Q1022 R24L/410145 R24C/410145 TEMPO -FZDZ OVC004
Conditions at: UUEE (MOSCOW/SHEREMET', RU) observed 1330 UTC 13 January 2023
Temperature: -6.0°C (21°F)
Dewpoint: -8.0°C (18°F) [RH = 86%]
Pressure (altimeter): 30.18 inches Hg (1022.0 mb)
Winds: from the S (190 degrees) at 12 MPH (10 knots; 5.1 m/s)
Visibility: 6 or more miles (10+ km)
Ceiling: 900 feet AGL
Clouds: overcast cloud deck at 900 feet AGL
Weather: no significant weather observed at this time

METAR text: UUEE 131300Z 19005MPS 9999 OVC010 M06/M08 Q1021 R24L/410145 R24C/410145 TEMPO -FZDZ OVC004
Conditions at: UUEE (MOSCOW/SHEREMET', RU) observed 1300 UTC 13 January 2023
Temperature: -6.0°C (21°F)
Dewpoint: -8.0°C (18°F) [RH = 86%]
Pressure (altimeter): 30.15 inches Hg (1021.0 mb)
Winds: from the S (190 degrees) at 12 MPH (10 knots; 5.1 m/s)
Visibility: 6 or more miles (10+ km)
Ceiling: 1000 feet AGL
Clouds: overcast cloud deck at 1000 feet AGL
Weather: no significant weather observed at this time

Forecast for: UUEE (MOSCOW/SHEREMET', RU)
Text: TAF UUEE 131057Z 1312/1412 19007G13MPS 6000 FEW005 BKN010 TXM04/1314Z TNM05/1312Z
Forecast period: 1200 UTC 13 January 2023 to 1200 UTC 14 January 2023
Forecast type: FROM: standard forecast or significant change
Winds: from the S (190 degrees) at 16 MPH (14 knots; 7.2 m/s)
gusting to 29 MPH (25 knots; 12.9 m/s)
Visibility: 4 miles (6 km)
Ceiling: 1000 feet AGL
Clouds: few clouds at 500 feet AGL
broken clouds at 1000 feet AGL
Weather: no significant weather forecast for this period
Text: TEMPO 1312/1406 -FZDZ OVC004
Forecast period: 1200 UTC 13 January 2023 to 0600 UTC 14 January 2023
Forecast type: TEMPORARY: The following changes expected for less than half the time period
Visibility: missing
Ceiling: 400 feet AGL
Clouds: overcast cloud deck at 400 feet AGL
Weather: -FZDZ  (light freezing drizzle)